Time;durP1;ratioP1;P1;durP2;ratioP2;P2;SDS_P1;SDS_P2;PMS_P1;PMS_P2;Temp;Humidity;BMP_temperature;BMP_pressure;BME280_temperature;BME280_humidity;BME280_pressure;Samples;Min_cycle;Max_cycle;Signal;HPM_P1;HPM_P2
2023/12/28 00:01:33;;;;;;;1.02;1.02;;;;;;;-1.49;95.89;98650.63;4861091;29;20056;-92
2023/12/28 00:03:59;;;;;;;1.05;1.05;;;;;;;-1.24;95.83;98649.06;4880357;29;20042;-91
2023/12/28 00:06:25;;;;;;;1.10;1.10;;;;;;;-1.17;95.56;98639.94;4867003;29;20045;-90
2023/12/28 00:08:50;;;;;;;1.10;1.10;;;;;;;-1.38;95.28;98649.75;4848770;29;20041;-91
2023/12/28 00:11:16;;;;;;;1.10;1.10;;;;;;;-1.18;95.98;98645.97;4866270;29;20124;-91
2023/12/28 00:13:41;;;;;;;1.10;1.10;;;;;;;-1.23;95.40;98649.97;4866781;29;20042;-91
2023/12/28 00:16:07;;;;;;;1.00;1.00;;;;;;;-1.27;95.30;98640.97;4866312;29;20045;-92
2023/12/28 00:18:32;;;;;;;1.10;1.10;;;;;;;-1.27;95.40;98642.69;4857712;29;20064;-92
2023/12/28 00:20:58;;;;;;;1.10;1.10;;;;;;;-1.32;95.52;98652.81;4866445;29;20038;-92
2023/12/28 00:23:23;;;;;;;1.10;1.10;;;;;;;-1.44;95.57;98667.59;4876113;29;20045;-91
2023/12/28 00:25:48;;;;;;;1.17;1.17;;;;;;;-1.42;95.54;98664.31;4877014;29;20041;-92
2023/12/28 00:28:14;;;;;;;1.15;1.15;;;;;;;-1.49;95.79;98671.56;4850914;29;20041;-90
2023/12/28 00:30:39;;;;;;;1.10;1.10;;;;;;;-1.53;96.26;98660.00;4853155;29;20072;-90
2023/12/28 00:33:05;;;;;;;1.10;1.10;;;;;;;-1.53;95.70;98669.50;4853326;29;20056;-90
2023/12/28 00:35:32;;;;;;;1.10;1.10;;;;;;;-1.52;96.13;98660.91;4867309;29;20056;-91
2023/12/28 00:37:57;;;;;;;1.10;1.10;;;;;;;-1.37;96.10;98667.25;4884628;29;20137;-90
2023/12/28 00:40:23;;;;;;;1.02;1.02;;;;;;;-1.63;95.48;98668.84;4864838;29;20088;-91
2023/12/28 00:42:48;;;;;;;1.20;1.20;;;;;;;-1.59;95.83;98668.25;4861737;29;20049;-90
2023/12/28 00:45:44;;;;;;;1.10;1.10;;;;;;;-1.64;95.88;98671.34;5106326;27;20448;-90
2023/12/28 00:48:09;;;;;;;1.05;1.05;;;;;;;-1.44;95.94;98678.97;5075015;28;20804;-90
2023/12/28 00:50:35;;;;;;;1.10;1.10;;;;;;;-1.20;95.46;98672.00;5088990;28;20098;-89
2023/12/28 00:53:00;;;;;;;1.00;1.00;;;;;;;-1.32;95.45;98669.41;5072843;28;20036;-92
2023/12/28 00:55:27;;;;;;;1.10;1.10;;;;;;;-1.43;95.87;98670.34;5085244;28;20048;-91
2023/12/28 00:57:53;;;;;;;1.05;1.05;;;;;;;-1.32;95.68;98671.13;5087414;28;20040;-91
2023/12/28 01:00:18;;;;;;;1.10;1.10;;;;;;;-1.57;95.53;98664.06;5087200;28;20043;-93
2023/12/28 01:02:46;;;;;;;1.08;1.08;;;;;;;-1.46;95.50;98670.09;5069377;28;20551;-91
2023/12/28 01:05:12;;;;;;;1.10;1.10;;;;;;;-1.24;95.23;98670.00;5072432;28;20044;-91
2023/12/28 01:07:38;;;;;;;1.10;1.10;;;;;;;-1.20;94.97;98671.09;5071929;28;20812;-90
2023/12/28 01:10:05;;;;;;;1.10;1.10;;;;;;;-1.28;95.17;98673.19;5071440;28;20048;-89
2023/12/28 01:12:30;;;;;;;1.10;1.10;;;;;;;-1.45;95.25;98674.53;5071061;28;20044;-91
2023/12/28 01:14:57;;;;;;;1.10;1.10;;;;;;;-1.27;95.21;98661.91;5069233;28;20094;-90
2023/12/28 01:17:24;;;;;;;1.20;1.20;;;;;;;-1.45;95.32;98673.63;5087559;28;20054;-91
2023/12/28 01:19:49;;;;;;;1.10;1.10;;;;;;;-1.29;95.62;98660.91;5069180;28;20033;-91
2023/12/28 01:22:15;;;;;;;1.10;1.10;;;;;;;-1.31;95.26;98667.72;5055667;28;20040;-91
2023/12/28 01:24:41;;;;;;;1.10;1.10;;;;;;;-1.31;95.52;98667.72;5071628;28;20033;-90
2023/12/28 01:27:07;;;;;;;1.10;1.10;;;;;;;-1.47;95.31;98675.22;5090188;28;20441;-91
2023/12/28 01:29:33;;;;;;;1.10;1.10;;;;;;;-1.42;95.37;98672.16;5087938;28;20040;-90
2023/12/28 01:31:59;;;;;;;1.17;1.17;;;;;;;-1.08;95.01;98670.31;5054634;28;20132;-90
2023/12/28 01:34:26;;;;;;;1.10;1.10;;;;;;;-1.09;94.74;98659.75;5071147;28;20116;-90
2023/12/28 01:36:51;;;;;;;1.10;1.10;;;;;;;-1.24;94.78;98670.00;5074403;28;20037;-90
2023/12/28 01:39:18;;;;;;;1.10;1.10;;;;;;;-1.35;94.67;98682.25;5065627;28;20044;-90
2023/12/28 01:41:46;;;;;;;1.13;1.13;;;;;;;-1.40;94.75;98677.50;5082118;28;20162;-90
2023/12/28 01:44:11;;;;;;;1.00;1.00;;;;;;;-1.45;94.98;98678.84;5068349;28;20090;-92
2023/12/28 01:46:40;;;;;;;1.20;1.20;;;;;;;-1.64;95.11;98685.31;5078080;28;20045;-91
2023/12/28 01:49:07;;;;;;;1.10;1.10;;;;;;;-1.50;95.55;98695.91;5069432;28;20494;-92
2023/12/28 01:51:34;;;;;;;1.10;1.10;;;;;;;-1.27;95.86;98695.94;5084040;28;20040;-91
2023/12/28 01:54:00;;;;;;;1.10;1.10;;;;;;;-1.35;95.34;98697.06;5052279;28;20032;-91
2023/12/28 01:56:26;;;;;;;1.10;1.10;;;;;;;-1.42;95.80;98695.69;5025156;28;20044;-91
2023/12/28 01:58:53;;;;;;;1.10;1.10;;;;;;;-1.51;96.00;98702.84;5052012;28;20044;-91
2023/12/28 02:01:20;;;;;;;1.08;1.08;;;;;;;-1.67;95.91;98711.25;5066256;28;20117;-90
2023/12/28 02:03:46;;;;;;;1.10;1.10;;;;;;;-1.60;95.75;98702.16;5058183;28;20479;-92
2023/12/28 02:06:15;;;;;;;1.10;1.10;;;;;;;-1.57;95.94;98707.63;5039499;28;20037;-91
2023/12/28 02:08:43;;;;;;;1.20;1.20;;;;;;;-1.62;96.31;98701.16;5050526;28;20491;-90
2023/12/28 02:11:11;;;;;;;1.10;1.10;;;;;;;-1.61;95.75;98716.94;5052771;28;20056;-90
2023/12/28 02:13:37;;;;;;;1.10;1.10;;;;;;;-1.45;96.06;98711.16;5036732;28;20601;-93
2023/12/28 02:16:31;;;;;;;1.13;1.13;;;;;;;-1.54;95.64;98723.53;5043057;28;20040;-93
2023/12/28 02:19:06;;;;;;;1.08;1.08;;;;;;;-1.48;95.79;98739.72;5048802;28;20045;-92
2023/12/28 02:21:35;;;;;;;1.10;1.10;;;;;;;-1.28;95.58;98724.63;5052746;28;20433;-93
2023/12/28 02:24:03;;;;;;;1.20;1.20;;;;;;;-1.18;95.12;98729.72;5051472;28;20088;-92
2023/12/28 02:26:29;;;;;;;1.17;1.17;;;;;;;-1.36;95.15;98724.03;5039018;28;20061;-91
2023/12/28 02:28:54;;;;;;;1.20;1.20;;;;;;;-1.33;95.43;98719.94;5049778;28;20045;-91
2023/12/28 02:31:34;;;;;;;1.10;1.10;;;;;;;-1.52;95.17;98729.81;5056950;28;20033;-92
2023/12/28 02:34:11;;;;;;;1.10;1.10;;;;;;;-1.51;95.62;98731.63;5061330;28;20028;-92
2023/12/28 02:36:41;;;;;;;1.10;1.10;;;;;;;-1.37;95.51;98733.59;5033177;28;20067;-90
2023/12/28 02:39:08;;;;;;;1.10;1.10;;;;;;;-1.39;95.69;98731.63;5037395;28;20041;-90
2023/12/28 02:41:34;;;;;;;1.20;1.20;;;;;;;-1.37;95.43;98724.84;5034655;28;20052;-91
2023/12/28 02:44:00;;;;;;;1.20;1.20;;;;;;;-1.51;95.66;98734.25;5072138;28;20509;-92
2023/12/28 02:46:26;;;;;;;1.10;1.10;;;;;;;-1.37;95.68;98723.13;5052175;28;20499;-92
2023/12/28 02:48:57;;;;;;;1.10;1.10;;;;;;;-1.46;95.46;98719.81;5056441;28;20062;-91
2023/12/28 02:51:22;;;;;;;1.10;1.10;;;;;;;-1.36;95.49;98716.19;5057914;28;20037;-91
2023/12/28 02:53:51;;;;;;;1.20;1.20;;;;;;;-1.38;95.49;98715.16;5068657;28;20124;-94
2023/12/28 02:56:17;;;;;;;1.15;1.15;;;;;;;-0.98;95.36;98712.88;5040767;28;20041;-91
2023/12/28 02:58:43;;;;;;;1.10;1.10;;;;;;;-0.86;94.48;98705.94;5051013;28;20044;-92
2023/12/28 03:01:09;;;;;;;1.20;1.20;;;;;;;-0.86;94.50;98712.06;5048931;28;20112;-92
2023/12/28 03:03:34;;;;;;;1.10;1.10;;;;;;;-0.80;94.41;98728.22;5053466;28;20091;-91
2023/12/28 03:06:00;;;;;;;1.10;1.10;;;;;;;-0.72;93.62;98709.53;5039523;28;20029;-92
2023/12/28 03:08:26;;;;;;;1.08;1.08;;;;;;;-0.69;93.99;98715.91;5066246;28;20064;-93
2023/12/28 03:10:55;;;;;;;1.10;1.10;;;;;;;-0.60;92.58;98713.03;5052034;28;20040;-92
2023/12/28 03:13:21;;;;;;;1.10;1.10;;;;;;;-0.74;92.96;98719.00;5048661;28;20040;-91
2023/12/28 03:15:47;;;;;;;1.10;1.10;;;;;;;-0.84;93.31;98720.94;5038596;28;20037;-91
2023/12/28 03:18:13;;;;;;;1.13;1.13;;;;;;;-0.93;94.00;98704.56;5074777;28;20068;-91
2023/12/28 03:20:39;;;;;;;1.10;1.10;;;;;;;-0.86;93.93;98706.84;5055031;28;20049;-91
2023/12/28 03:23:06;;;;;;;1.20;1.20;;;;;;;-0.74;93.92;98719.00;5055919;28;20079;-91
2023/12/28 03:25:31;;;;;;;1.10;1.10;;;;;;;-0.58;93.43;98700.94;5051387;28;20222;-91
2023/12/28 03:27:57;;;;;;;1.05;1.05;;;;;;;-0.61;93.25;98704.28;5050524;28;20179;-90
2023/12/28 03:30:22;;;;;;;1.10;1.10;;;;;;;-0.34;92.46;98702.69;5039246;28;20077;-91
2023/12/28 03:32:48;;;;;;;1.10;1.10;;;;;;;-0.49;92.76;98701.59;5031291;28;20068;-91
2023/12/28 03:35:15;;;;;;;1.10;1.10;;;;;;;-0.46;93.43;98704.47;5053795;28;20025;-90
2023/12/28 03:37:41;;;;;;;1.10;1.10;;;;;;;-0.36;92.76;98706.94;5054438;28;20375;-90
2023/12/28 03:40:10;;;;;;;1.02;1.02;;;;;;;-0.17;93.18;98709.13;5056170;28;20056;-91
2023/12/28 03:42:36;;;;;;;1.10;1.10;;;;;;;0.01;93.12;98704.28;5052721;28;20041;-90
2023/12/28 03:45:01;;;;;;;1.02;1.02;;;;;;;0.17;91.18;98695.75;5069619;28;20717;-90
2023/12/28 03:47:27;;;;;;;1.08;1.08;;;;;;;0.37;90.92;98697.09;5051373;28;20029;-91
2023/12/28 03:49:56;;;;;;;1.00;1.00;;;;;;;0.49;90.88;98703.19;5051002;28;20056;-90
2023/12/28 03:52:23;;;;;;;1.10;1.10;;;;;;;0.62;90.96;98700.56;5019856;28;20116;-92
2023/12/28 03:54:50;;;;;;;1.10;1.10;;;;;;;0.79;92.27;98699.06;5053090;28;20025;-90
2023/12/28 03:57:15;;;;;;;1.10;1.10;;;;;;;0.93;91.48;98705.25;5034050;28;20041;-92
2023/12/28 03:59:41;;;;;;;1.00;1.00;;;;;;;1.00;91.85;98705.72;5034224;28;20049;-93
2023/12/28 04:02:07;;;;;;;1.00;1.00;;;;;;;1.09;91.36;98691.38;5028610;28;20064;-92
2023/12/28 04:04:37;;;;;;;1.10;1.10;;;;;;;1.16;92.34;98683.09;5048163;28;20064;-91
2023/12/28 04:07:07;;;;;;;1.10;1.10;;;;;;;1.27;91.16;98695.22;5036277;28;20413;-92
2023/12/28 04:09:33;;;;;;;1.00;1.00;;;;;;;1.37;90.92;98687.09;5045199;28;20293;-93
2023/12/28 04:11:58;;;;;;;1.00;1.00;;;;;;;1.34;91.70;98689.53;5050482;28;20037;-93
2023/12/28 04:14:24;;;;;;;1.00;1.00;;;;;;;1.39;89.80;98689.81;5036899;28;20084;-91
2023/12/28 04:16:51;;;;;;;0.93;0.93;;;;;;;1.48;89.33;98682.50;5034593;28;20052;-91
2023/12/28 04:19:16;;;;;;;1.00;1.00;;;;;;;1.53;91.42;98681.09;5035128;28;20099;-91
2023/12/28 04:21:45;;;;;;;1.10;1.10;;;;;;;1.59;91.15;98689.38;5034274;28;20080;-92
2023/12/28 04:24:10;;;;;;;1.00;1.00;;;;;;;1.53;88.86;98683.72;5035779;28;20090;-93
2023/12/28 04:26:36;;;;;;;1.00;1.00;;;;;;;1.66;90.18;98682.78;5037381;28;20045;-92
2023/12/28 04:29:02;;;;;;;0.90;0.90;;;;;;;1.75;88.62;98684.25;5048522;28;20037;-91
2023/12/28 04:31:29;;;;;;;1.10;1.10;;;;;;;1.89;89.12;98681.59;5068371;28;20051;-91
2023/12/28 04:33:54;;;;;;;1.00;1.00;;;;;;;2.08;90.50;98674.00;5054403;28;20037;-90
2023/12/28 04:36:20;;;;;;;1.00;1.00;;;;;;;2.14;90.12;98670.84;5034257;28;20041;-91
2023/12/28 04:38:45;;;;;;;1.00;1.00;;;;;;;2.26;90.73;98669.88;5051116;28;20108;-90
2023/12/28 04:41:11;;;;;;;0.90;0.90;;;;;;;2.33;85.18;98657.06;5042996;28;20047;-89
2023/12/28 04:43:38;;;;;;;1.03;1.03;;;;;;;2.39;90.34;98662.69;5048734;28;20447;-90
2023/12/28 04:46:04;;;;;;;1.00;1.00;;;;;;;2.44;87.78;98658.59;5051185;28;20041;-90
2023/12/28 04:48:31;;;;;;;1.02;1.02;;;;;;;2.43;87.33;98664.69;5048894;28;20801;-90
2023/12/28 04:50:56;;;;;;;1.00;1.00;;;;;;;2.62;87.36;98648.25;5049536;28;20037;-90
2023/12/28 04:53:23;;;;;;;1.05;1.05;;;;;;;2.92;84.00;98654.38;5041559;28;20041;-91
2023/12/28 04:55:50;;;;;;;1.00;1.00;;;;;;;3.14;83.82;98656.53;5038934;28;20052;-90
2023/12/28 04:58:15;;;;;;;0.93;0.93;;;;;;;3.05;84.61;98655.19;5056044;28;20037;-90
2023/12/28 05:00:41;;;;;;;1.00;1.00;;;;;;;3.54;81.20;98639.47;5041167;28;20045;-89
2023/12/28 05:03:06;;;;;;;0.90;0.90;;;;;;;3.42;84.65;98651.09;5072660;28;20037;-91
2023/12/28 05:05:32;;;;;;;0.90;0.90;;;;;;;3.51;79.84;98643.69;5062559;28;20040;-92
2023/12/28 05:07:59;;;;;;;1.00;1.00;;;;;;;3.63;80.60;98630.25;5061958;28;20041;-92
2023/12/28 05:10:28;;;;;;;0.90;0.90;;;;;;;4.36;73.62;98637.72;5065499;28;20039;-90
2023/12/28 05:12:54;;;;;;;0.90;0.90;;;;;;;5.34;68.05;98646.97;5049091;28;20044;-89
2023/12/28 05:15:20;;;;;;;0.80;0.80;;;;;;;4.62;73.05;98659.25;5069307;28;20033;-91
2023/12/28 05:17:45;;;;;;;0.80;0.80;;;;;;;4.68;70.86;98656.03;5036445;28;20037;-89
2023/12/28 05:20:11;;;;;;;0.90;0.90;;;;;;;4.68;69.94;98662.22;5036808;28;20037;-90
2023/12/28 05:22:36;;;;;;;0.80;0.80;;;;;;;4.78;69.40;98669.78;5043247;28;20041;-90
2023/12/28 05:25:02;;;;;;;0.70;0.70;;;;;;;4.86;71.54;98667.53;5035712;28;20029;-90
2023/12/28 05:27:27;;;;;;;0.80;0.80;;;;;;;5.02;70.28;98659.53;5035248;28;20057;-91
2023/12/28 05:29:53;;;;;;;0.90;0.90;;;;;;;5.59;64.23;98664.91;5052922;28;20036;-90
2023/12/28 05:32:22;;;;;;;0.80;0.80;;;;;;;5.52;71.63;98673.41;5053400;28;21480;-92
2023/12/28 05:34:49;;;;;;;0.80;0.80;;;;;;;5.36;69.26;98677.03;5036487;28;20676;-92
2023/12/28 05:37:15;;;;;;;;;;;;;;;5.90;66.08;98672.56;5039769;28;20029;-92
2023/12/28 05:39:40;;;;;;;0.80;0.80;;;;;;;6.33;61.45;98682.50;5038558;28;19965;-91
2023/12/28 05:42:06;;;;;;;0.80;0.80;;;;;;;6.38;63.38;98688.91;5054408;28;20048;-91
2023/12/28 05:44:31;;;;;;;0.80;0.80;;;;;;;5.97;67.98;98694.97;5050068;28;20057;-92
2023/12/28 05:47:03;;;;;;;0.90;0.90;;;;;;;6.14;62.76;98691.38;5044129;28;20033;-92
2023/12/28 05:49:30;;;;;;;0.80;0.80;;;;;;;6.01;69.40;98696.94;5053432;28;20037;-92
2023/12/28 05:51:55;;;;;;;0.80;0.80;;;;;;;5.90;69.12;98705.25;5071820;28;20037;-92
2023/12/28 05:54:21;;;;;;;0.70;0.70;;;;;;;5.93;68.20;98707.16;5061016;28;20363;-91
2023/12/28 05:56:46;;;;;;;0.80;0.80;;;;;;;6.16;64.55;98705.56;5042305;28;20097;-91
2023/12/28 05:59:12;;;;;;;0.70;0.70;;;;;;;6.21;64.79;98695.19;5037188;28;20390;-91
2023/12/28 06:01:44;;;;;;;0.70;0.70;;;;;;;6.20;66.14;98689.00;5052500;28;20467;-91
2023/12/28 06:04:11;;;;;;;0.90;0.90;;;;;;;7.00;61.20;98692.50;5049863;28;20429;-91
2023/12/28 06:06:36;;;;;;;0.80;0.80;;;;;;;6.61;67.31;98705.81;5064118;28;20036;-91
2023/12/28 06:09:03;;;;;;;0.70;0.70;;;;;;;6.50;65.38;98713.28;5048887;28;20372;-90
2023/12/28 06:11:28;;;;;;;0.90;0.90;;;;;;;6.40;67.19;98709.34;5046576;28;20037;-91
2023/12/28 06:13:54;;;;;;;0.75;0.75;;;;;;;6.70;61.82;98719.47;5032426;28;20037;-91
2023/12/28 06:16:19;;;;;;;0.70;0.70;;;;;;;6.45;68.15;98713.94;5037321;28;20049;-90
2023/12/28 06:18:45;;;;;;;0.70;0.70;;;;;;;6.35;66.21;98732.06;5072234;28;20506;-91
2023/12/28 06:21:11;;;;;;;0.80;0.80;;;;;;;6.47;65.23;98737.03;5052172;28;20690;-91
2023/12/28 06:23:37;;;;;;;0.70;0.70;;;;;;;6.61;66.48;98732.31;5034595;28;20048;-90
2023/12/28 06:26:08;;;;;;;0.80;0.80;;;;;;;6.52;67.54;98742.53;5050886;28;20059;-91
2023/12/28 06:28:35;;;;;;;0.70;0.70;;;;;;;6.45;68.27;98746.66;5034314;28;20048;-90
2023/12/28 06:31:03;;;;;;;0.70;0.70;;;;;;;6.45;67.86;98732.50;5038432;28;20124;-89
2023/12/28 06:33:28;;;;;;;0.77;0.77;;;;;;;6.33;68.22;98747.00;5018893;28;20037;-90
2023/12/28 06:35:54;;;;;;;0.70;0.70;;;;;;;6.14;69.64;98742.59;5037123;28;20032;-90
2023/12/28 06:38:20;;;;;;;0.70;0.70;;;;;;;6.12;69.51;98727.44;5066846;28;20064;-91
2023/12/28 06:40:45;;;;;;;0.70;0.70;;;;;;;6.12;70.00;98738.94;5050650;28;20562;-90
2023/12/28 06:43:11;;;;;;;0.70;0.70;;;;;;;6.04;70.62;98739.47;5049581;28;20041;-91
2023/12/28 06:45:36;;;;;;;0.80;0.80;;;;;;;6.00;71.41;98732.19;5036462;28;20039;-90
2023/12/28 06:48:02;;;;;;;0.70;0.70;;;;;;;6.05;70.66;98725.38;5018179;28;20490;-90
2023/12/28 06:50:27;;;;;;;0.65;0.65;;;;;;;5.95;71.92;98739.91;5034344;28;20073;-89
2023/12/28 06:52:53;;;;;;;0.70;0.70;;;;;;;5.99;71.33;98735.66;5068444;28;20518;-90
2023/12/28 06:55:20;;;;;;;0.80;0.80;;;;;;;5.93;71.20;98736.28;5051995;28;21558;-89
2023/12/28 06:57:45;;;;;;;0.80;0.80;;;;;;;5.95;71.79;98736.38;5052714;28;20041;-90
2023/12/28 07:00:12;;;;;;;0.80;0.80;;;;;;;5.93;71.05;98745.97;5053129;28;20047;-90
2023/12/28 07:02:38;;;;;;;;;;;;;;;6.00;71.83;98749.00;5048018;28;20044;-90
2023/12/28 07:05:04;;;;;;;0.80;0.80;;;;;;;6.06;72.02;98745.72;5051222;28;19913;-90
2023/12/28 07:07:31;;;;;;;0.80;0.80;;;;;;;5.89;73.10;98744.88;5051880;28;20037;-90
2023/12/28 07:09:57;;;;;;;;;;;;;;;5.89;73.74;98751.09;5066334;28;20043;-90
2023/12/28 07:12:23;;;;;;;0.80;0.80;;;;;;;5.78;75.10;98748.75;5052150;28;19947;-90
2023/12/28 07:14:49;;;;;;;0.70;0.70;;;;;;;5.85;75.28;98745.59;5051292;28;20415;-89
2023/12/28 07:17:17;;;;;;;0.80;0.80;;;;;;;5.98;75.23;98742.69;5068073;28;20044;-91
2023/12/28 07:19:43;;;;;;;;;;;;;;;5.93;74.53;98757.47;5053520;28;20036;-91
2023/12/28 07:22:08;;;;;;;0.80;0.80;;;;;;;5.96;74.38;98756.72;5053231;28;19920;-91
2023/12/28 07:24:34;;;;;;;0.80;0.80;;;;;;;6.16;72.51;98763.84;5028002;28;20095;-91
2023/12/28 07:26:59;;;;;;;0.80;0.80;;;;;;;6.21;72.84;98767.63;5052237;28;20075;-92
2023/12/28 07:29:26;;;;;;;0.88;0.88;;;;;;;6.19;72.43;98771.94;5051276;28;20052;-90
2023/12/28 07:31:54;;;;;;;0.70;0.70;;;;;;;6.23;71.35;98778.28;5055329;28;20098;-91
2023/12/28 07:34:22;;;;;;;0.80;0.80;;;;;;;6.15;71.38;98780.59;5047055;28;20064;-91
2023/12/28 07:36:47;;;;;;;0.80;0.80;;;;;;;6.10;70.56;98782.13;5045583;28;20033;-90
2023/12/28 07:39:14;;;;;;;0.80;0.80;;;;;;;6.14;70.25;98786.72;5037065;28;20435;-91
2023/12/28 07:41:40;;;;;;;0.80;0.80;;;;;;;6.08;71.03;98786.41;5031127;28;20041;-91
2023/12/28 07:44:05;;;;;;;0.70;0.70;;;;;;;5.96;71.80;98784.09;5065352;28;20040;-91
2023/12/28 07:46:31;;;;;;;0.75;0.75;;;;;;;5.93;71.86;98789.25;5029405;28;20039;-90
2023/12/28 07:48:57;;;;;;;0.80;0.80;;;;;;;5.95;72.07;98792.88;5049559;28;20060;-90
2023/12/28 07:51:22;;;;;;;0.70;0.70;;;;;;;6.01;71.70;98792.25;5058159;28;20060;-90
2023/12/28 07:53:48;;;;;;;0.73;0.73;;;;;;;5.99;71.96;98791.25;5033808;28;20062;-91
2023/12/28 07:56:13;;;;;;;0.70;0.70;;;;;;;5.96;73.60;98789.41;5037386;28;20036;-90
2023/12/28 07:58:39;;;;;;;0.80;0.80;;;;;;;5.96;73.36;98786.75;5045869;28;20041;-91
2023/12/28 08:01:10;;;;;;;0.70;0.70;;;;;;;5.97;72.99;98785.91;5050808;28;20033;-90
2023/12/28 08:03:35;;;;;;;0.70;0.70;;;;;;;5.96;74.05;98783.19;5061183;28;20100;-91
2023/12/28 08:06:01;;;;;;;0.70;0.70;;;;;;;5.86;74.38;98788.00;5043671;28;20115;-91
2023/12/28 08:08:26;;;;;;;0.80;0.80;;;;;;;5.78;74.84;98799.06;5066064;28;20045;-90
2023/12/28 08:10:52;;;;;;;0.73;0.73;;;;;;;5.88;74.25;98791.63;5049525;28;20041;-91
2023/12/28 08:13:17;;;;;;;0.80;0.80;;;;;;;5.94;74.73;98798.09;5055085;28;20092;-90
2023/12/28 08:15:43;;;;;;;0.80;0.80;;;;;;;6.02;73.77;98794.97;5037585;28;20025;-90
2023/12/28 08:18:10;;;;;;;0.80;0.80;;;;;;;5.94;74.54;98791.06;5053218;28;20042;-91
2023/12/28 08:20:36;;;;;;;0.70;0.70;;;;;;;5.90;76.16;98791.72;5062230;28;20028;-90
2023/12/28 08:23:02;;;;;;;0.80;0.80;;;;;;;5.92;74.47;98784.78;5062403;28;20051;-91
2023/12/28 08:25:28;;;;;;;0.80;0.80;;;;;;;6.04;74.82;98788.03;5049103;28;20053;-90
2023/12/28 08:27:54;;;;;;;0.70;0.70;;;;;;;6.09;74.62;98793.53;5038152;28;20048;-91
2023/12/28 08:30:19;;;;;;;0.70;0.70;;;;;;;5.99;74.53;98788.63;5050546;28;20076;-92
2023/12/28 08:32:46;;;;;;;0.80;0.80;;;;;;;6.14;74.62;98778.78;5046551;28;20040;-91
2023/12/28 08:35:12;;;;;;;0.70;0.70;;;;;;;6.08;74.70;98773.16;5051868;28;20034;-91
2023/12/28 08:37:37;;;;;;;0.75;0.75;;;;;;;6.18;75.59;98780.75;5053677;28;20056;-91
2023/12/28 08:40:03;;;;;;;0.80;0.80;;;;;;;6.19;74.17;98781.66;5047535;28;20043;-90
2023/12/28 08:42:30;;;;;;;0.80;0.80;;;;;;;6.33;73.94;98778.81;5052120;28;20033;-91
2023/12/28 08:44:55;;;;;;;0.70;0.70;;;;;;;6.36;74.10;98784.22;5047132;28;20037;-91
2023/12/28 08:47:24;;;;;;;0.70;0.70;;;;;;;6.38;74.13;98789.63;5070301;28;20759;-91
2023/12/28 08:49:49;;;;;;;0.60;0.60;;;;;;;6.43;75.18;98793.38;5054871;28;20025;-90
2023/12/28 08:52:18;;;;;;;0.70;0.70;;;;;;;6.48;75.83;98793.59;5041812;28;20074;-90
2023/12/28 08:54:43;;;;;;;0.80;0.80;;;;;;;6.51;75.32;98799.00;5055013;28;20033;-91
2023/12/28 08:57:09;;;;;;;0.80;0.80;;;;;;;6.48;75.84;98786.53;5051900;28;20043;-92
2023/12/28 08:59:38;;;;;;;0.70;0.70;;;;;;;6.47;75.14;98795.34;5067809;28;20051;-90
2023/12/28 09:02:07;;;;;;;0.70;0.70;;;;;;;6.47;75.05;98791.75;5058850;28;20048;-91
2023/12/28 09:04:32;;;;;;;0.70;0.70;;;;;;;6.48;75.35;98786.53;5035774;28;20041;-90
2023/12/28 09:07:02;;;;;;;0.80;0.80;;;;;;;6.65;74.54;98784.66;5054796;28;20052;-90
2023/12/28 09:09:29;;;;;;;0.80;0.80;;;;;;;6.55;75.71;98793.94;5040126;28;20048;-89
2023/12/28 09:11:54;;;;;;;0.80;0.80;;;;;;;6.59;74.84;98800.28;5057047;28;20399;-91
2023/12/28 09:14:20;;;;;;;0.80;0.80;;;;;;;6.54;74.84;98802.72;5032680;28;20045;-91
2023/12/28 09:16:46;;;;;;;0.80;0.80;;;;;;;6.69;75.67;98803.41;5057501;28;20045;-90
2023/12/28 09:19:12;;;;;;;0.80;0.80;;;;;;;6.75;74.95;98799.22;5043072;28;20047;-90
2023/12/28 09:21:38;;;;;;;0.80;0.80;;;;;;;6.70;76.27;98783.09;5054369;28;20485;-90
2023/12/28 09:24:04;;;;;;;0.70;0.70;;;;;;;6.65;75.00;98790.84;5051795;28;20045;-92
2023/12/28 09:26:29;;;;;;;0.80;0.80;;;;;;;6.69;75.11;98795.47;5060594;28;20053;-91
2023/12/28 09:28:55;;;;;;;0.80;0.80;;;;;;;6.82;74.14;98790.72;5063931;28;20037;-91
2023/12/28 09:31:20;;;;;;;0.70;0.70;;;;;;;6.72;75.26;98785.84;5045379;28;20041;-89
2023/12/28 09:33:46;;;;;;;0.70;0.70;;;;;;;6.67;75.50;98785.66;5077602;28;20044;-90
2023/12/28 09:36:15;;;;;;;0.75;0.75;;;;;;;6.74;75.70;98784.16;5059218;28;20049;-90
2023/12/28 09:38:40;;;;;;;0.70;0.70;;;;;;;6.78;76.72;98788.78;5058441;28;20037;-90
2023/12/28 09:41:17;;;;;;;0.80;0.80;;;;;;;6.88;75.89;98798.94;5068155;28;20040;-92
2023/12/28 09:43:54;;;;;;;0.80;0.80;;;;;;;6.98;75.37;98801.16;5049001;28;20025;-92
2023/12/28 09:46:21;;;;;;;0.80;0.80;;;;;;;7.09;76.26;98813.19;5077273;28;20036;-91
2023/12/28 09:48:47;;;;;;;0.90;0.90;;;;;;;7.19;75.16;98801.22;5071789;28;20024;-91
2023/12/28 09:51:13;;;;;;;0.75;0.75;;;;;;;7.23;75.79;98788.97;5070377;28;20055;-90
2023/12/28 09:53:39;;;;;;;0.80;0.80;;;;;;;7.39;75.47;98805.63;5059772;28;20048;-92
2023/12/28 09:56:06;;;;;;;0.80;0.80;;;;;;;7.46;74.89;98805.03;5078497;28;20051;-93
2023/12/28 09:58:35;;;;;;;0.80;0.80;;;;;;;7.56;76.13;98808.97;5053691;28;20283;-92
2023/12/28 10:01:01;;;;;;;0.80;0.80;;;;;;;7.74;76.25;98818.56;5065250;28;20037;-92
2023/12/28 10:03:26;;;;;;;0.70;0.70;;;;;;;7.96;75.99;98819.53;5044995;28;20045;-90
2023/12/28 10:05:52;;;;;;;0.70;0.70;;;;;;;8.04;75.18;98797.66;5069905;28;20045;-90
2023/12/28 10:08:18;;;;;;;0.73;0.73;;;;;;;8.24;73.84;98791.41;5071028;28;20087;-90
2023/12/28 10:10:50;;;;;;;0.70;0.70;;;;;;;8.42;73.34;98799.19;5049084;28;20024;-90
2023/12/28 10:13:17;;;;;;;0.70;0.70;;;;;;;8.54;73.50;98812.97;5072662;28;20029;-91
2023/12/28 10:15:46;;;;;;;0.70;0.70;;;;;;;8.52;73.81;98808.44;5064970;28;20121;-93
2023/12/28 10:18:12;;;;;;;0.70;0.70;;;;;;;8.36;72.92;98805.19;5071749;28;20033;-93
2023/12/28 10:20:38;;;;;;;0.70;0.70;;;;;;;8.13;72.83;98814.88;5074290;28;20074;-91
2023/12/28 10:23:07;;;;;;;0.70;0.70;;;;;;;7.95;73.26;98812.41;5039108;28;20068;-93
2023/12/28 10:25:32;;;;;;;0.80;0.80;;;;;;;7.90;73.35;98826.31;5056816;28;20074;-93
2023/12/28 10:28:03;;;;;;;0.70;0.70;;;;;;;7.84;73.44;98826.97;5075387;28;20049;-91
2023/12/28 10:30:30;;;;;;;0.70;0.70;;;;;;;7.88;73.47;98823.59;5041732;28;20079;-93
2023/12/28 10:32:55;;;;;;;0.80;0.80;;;;;;;7.76;74.91;98817.81;5078888;28;20064;-91
2023/12/28 10:35:21;;;;;;;0.60;0.60;;;;;;;7.94;74.13;98815.88;5044033;28;20307;-91
2023/12/28 10:37:52;;;;;;;0.70;0.70;;;;;;;7.84;73.93;98812.78;5044287;28;20036;-91
2023/12/28 10:40:20;;;;;;;0.70;0.70;;;;;;;7.89;75.31;98809.47;5068137;28;20037;-91
2023/12/28 10:42:52;;;;;;;0.60;0.60;;;;;;;7.90;76.10;98803.31;5022703;28;20132;-91
2023/12/28 10:45:23;;;;;;;0.60;0.60;;;;;;;8.17;75.34;98802.63;5054403;28;20046;-90
2023/12/28 10:48:08;;;;;;;0.70;0.70;;;;;;;8.41;75.17;98792.97;5053344;28;20064;-90
2023/12/28 10:50:41;;;;;;;0.60;0.60;;;;;;;8.51;74.21;98788.91;5041664;28;20048;-91
2023/12/28 10:53:33;;;;;;;0.63;0.63;;;;;;;7.93;77.25;98782.19;5058589;28;20064;-94
2023/12/28 10:56:13;;;;;;;0.65;0.65;;;;;;;7.98;77.31;98783.28;5053301;28;20040;-92
2023/12/28 10:59:05;;;;;;;0.70;0.70;;;;;;;8.28;77.31;98781.75;5039912;28;20046;-90
2023/12/28 11:01:37;;;;;;;0.60;0.60;;;;;;;8.36;77.09;98783.91;5057073;28;20104;-92
2023/12/28 11:04:10;;;;;;;0.70;0.70;;;;;;;8.36;76.74;98780.31;5036508;28;20064;-91
2023/12/28 11:06:37;;;;;;;0.55;0.55;;;;;;;8.41;76.92;98785.00;5031165;28;20034;-91
2023/12/28 11:09:05;;;;;;;0.70;0.70;;;;;;;8.36;76.56;98781.25;5053850;28;20045;-93
2023/12/28 11:11:32;;;;;;;0.70;0.70;;;;;;;8.40;76.59;98772.56;5055966;28;20048;-91
2023/12/28 11:14:00;;;;;;;;;;;;;;;8.49;75.80;98764.03;5064786;28;20029;-91
2023/12/28 11:16:28;;;;;;;0.70;0.70;;;;;;;8.73;74.43;98764.94;5077919;28;19916;-92
2023/12/28 11:18:55;;;;;;;0.60;0.60;;;;;;;8.80;74.59;98755.41;5065509;28;20047;-92
2023/12/28 11:21:22;;;;;;;0.60;0.60;;;;;;;8.88;74.93;98756.59;5060694;28;20104;-91
2023/12/28 11:23:48;;;;;;;0.70;0.70;;;;;;;8.77;74.85;98765.03;5076231;28;20049;-91
2023/12/28 11:26:18;;;;;;;0.70;0.70;;;;;;;8.74;75.57;98765.84;5044820;28;20028;-91
2023/12/28 11:28:44;;;;;;;0.60;0.60;;;;;;;8.74;75.21;98764.09;5046135;28;20296;-90
2023/12/28 11:31:13;;;;;;;0.60;0.60;;;;;;;8.65;75.83;98757.53;5062068;28;20025;-89
2023/12/28 11:33:45;;;;;;;0.60;0.60;;;;;;;8.61;75.98;98755.59;5062193;28;20032;-90
2023/12/28 11:36:10;;;;;;;0.60;0.60;;;;;;;8.55;76.80;98763.34;5061081;28;20025;-91
2023/12/28 11:38:40;;;;;;;0.60;0.60;;;;;;;8.47;77.31;98755.06;5060408;28;20908;-90
2023/12/28 11:41:05;;;;;;;0.60;0.60;;;;;;;8.28;77.86;98763.16;5055833;28;20036;-91